sensor_id;sensor_type;location;lat;lon;timestamp;pressure;altitude;pressure_sealevel;temperature;humidity
30516;BME280;17297;54.022;10.760;2022-10-17T00:01:49;102025.34;;;15.57;63.96
30516;BME280;17297;54.022;10.760;2022-10-17T00:04:15;102016.38;;;15.57;63.85
30516;BME280;17297;54.022;10.760;2022-10-17T00:06:40;102011.78;;;15.57;63.97
30516;BME280;17297;54.022;10.760;2022-10-17T00:09:06;101999.91;;;15.58;63.83
30516;BME280;17297;54.022;10.760;2022-10-17T00:11:31;102003.63;;;15.57;64.01
30516;BME280;17297;54.022;10.760;2022-10-17T00:13:56;102015.34;;;15.58;64.08
30516;BME280;17297;54.022;10.760;2022-10-17T00:16:27;102009.06;;;15.57;64.07
30516;BME280;17297;54.022;10.760;2022-10-17T00:18:53;102015.34;;;15.58;63.98
30516;BME280;17297;54.022;10.760;2022-10-17T00:21:19;102010.75;;;15.58;64.12
30516;BME280;17297;54.022;10.760;2022-10-17T00:23:45;102008.06;;;15.58;64.16
30516;BME280;17297;54.022;10.760;2022-10-17T00:26:12;102007.22;;;15.58;64.10
30516;BME280;17297;54.022;10.760;2022-10-17T00:28:38;102011.59;;;15.59;64.01
30516;BME280;17297;54.022;10.760;2022-10-17T00:31:05;102011.59;;;15.59;64.08
30516;BME280;17297;54.022;10.760;2022-10-17T00:33:32;102009.72;;;15.59;64.09
30516;BME280;17297;54.022;10.760;2022-10-17T00:36:18;102010.56;;;15.60;64.10
30516;BME280;17297;54.022;10.760;2022-10-17T00:38:46;102005.13;;;15.60;64.03
30516;BME280;17297;54.022;10.760;2022-10-17T00:41:14;102005.34;;;15.58;64.21
30516;BME280;17297;54.022;10.760;2022-10-17T00:44:00;102008.06;;;15.58;64.31
30516;BME280;17297;54.022;10.760;2022-10-17T00:46:29;102027.66;;;15.60;64.12
30516;BME280;17297;54.022;10.760;2022-10-17T00:48:56;102026.81;;;15.60;64.19
30516;BME280;17297;54.022;10.760;2022-10-17T00:51:45;102024.13;;;15.60;64.38
30516;BME280;17297;54.022;10.760;2022-10-17T00:54:14;102026.81;;;15.60;64.28
30516;BME280;17297;54.022;10.760;2022-10-17T00:56:40;102029.53;;;15.60;64.34
30516;BME280;17297;54.022;10.760;2022-10-17T00:59:08;102035.16;;;15.58;64.55
30516;BME280;17297;54.022;10.760;2022-10-17T01:01:37;102046.66;;;15.60;64.53
30516;BME280;17297;54.022;10.760;2022-10-17T01:04:03;102042.91;;;15.61;64.50
30516;BME280;17297;54.022;10.760;2022-10-17T01:06:29;102047.50;;;15.61;64.40
30516;BME280;17297;54.022;10.760;2022-10-17T01:08:54;102053.78;;;15.61;64.57
30516;BME280;17297;54.022;10.760;2022-10-17T01:11:36;102062.75;;;15.62;64.73
30516;BME280;17297;54.022;10.760;2022-10-17T01:14:26;102050.00;;;15.62;64.54
30516;BME280;17297;54.022;10.760;2022-10-17T01:16:57;102033.75;;;15.62;64.39
30516;BME280;17297;54.022;10.760;2022-10-17T01:25:20;102022.50;;;15.65;64.72
30516;BME280;17297;54.022;10.760;2022-10-17T01:27:55;102030.50;;;15.67;64.82
30516;BME280;17297;54.022;10.760;2022-10-17T01:33:28;102038.22;;;15.70;64.91
30516;BME280;17297;54.022;10.760;2022-10-17T01:36:04;102027.38;;;15.70;65.09
30516;BME280;17297;54.022;10.760;2022-10-17T01:38:37;102031.75;;;15.71;65.02
30516;BME280;17297;54.022;10.760;2022-10-17T01:41:13;102027.81;;;15.74;65.19
30516;BME280;17297;54.022;10.760;2022-10-17T01:43:52;102024.91;;;15.75;65.08
30516;BME280;17297;54.022;10.760;2022-10-17T01:46:29;102031.38;;;15.74;65.29
30516;BME280;17297;54.022;10.760;2022-10-17T01:48:59;102037.25;;;15.78;65.42
30516;BME280;17297;54.022;10.760;2022-10-17T01:51:36;102036.19;;;15.79;65.31
30516;BME280;17297;54.022;10.760;2022-10-17T01:54:13;102032.47;;;15.80;65.29
30516;BME280;17297;54.022;10.760;2022-10-17T01:56:42;102032.25;;;15.81;65.29
30516;BME280;17297;54.022;10.760;2022-10-17T01:59:16;102026.84;;;15.81;65.31
30516;BME280;17297;54.022;10.760;2022-10-17T02:01:46;102033.09;;;15.82;65.38
30516;BME280;17297;54.022;10.760;2022-10-17T02:04:12;102030.38;;;15.82;65.48
30516;BME280;17297;54.022;10.760;2022-10-17T02:06:37;102023.06;;;15.82;65.38
30516;BME280;17297;54.022;10.760;2022-10-17T02:09:23;102011.38;;;15.82;65.42
30516;BME280;17297;54.022;10.760;2022-10-17T02:11:58;102012.63;;;15.79;65.50
30516;BME280;17297;54.022;10.760;2022-10-17T02:14:45;102010.75;;;15.80;65.45
30516;BME280;17297;54.022;10.760;2022-10-17T02:25:28;102003.41;;;15.74;65.52
30516;BME280;17297;54.022;10.760;2022-10-17T02:28:41;102009.03;;;15.72;65.34
30516;BME280;17297;54.022;10.760;2022-10-17T02:31:03;101989.59;;;15.68;65.35
30516;BME280;17297;54.022;10.760;2022-10-17T02:34:00;101990.16;;;15.64;65.47
30516;BME280;17297;54.022;10.760;2022-10-17T02:36:34;101994.09;;;15.61;65.37
30516;BME280;17297;54.022;10.760;2022-10-17T02:39:02;101991.78;;;15.58;65.46
30516;BME280;17297;54.022;10.760;2022-10-17T02:41:29;101989.25;;;15.57;65.54
30516;BME280;17297;54.022;10.760;2022-10-17T02:43:55;101985.91;;;15.55;65.66
30516;BME280;17297;54.022;10.760;2022-10-17T02:46:24;101983.38;;;15.53;65.55
30516;BME280;17297;54.022;10.760;2022-10-17T02:48:59;101990.47;;;15.54;65.75
30516;BME280;17297;54.022;10.760;2022-10-17T02:51:34;101983.19;;;15.55;65.79
30516;BME280;17297;54.022;10.760;2022-10-17T02:54:31;101996.56;;;15.56;65.80
30516;BME280;17297;54.022;10.760;2022-10-17T02:57:07;101990.06;;;15.57;65.89
30516;BME280;17297;54.022;10.760;2022-10-17T02:59:35;101991.78;;;15.58;66.14
30516;BME280;17297;54.022;10.760;2022-10-17T03:02:05;101989.06;;;15.58;66.09
30516;BME280;17297;54.022;10.760;2022-10-17T03:04:31;101982.41;;;15.61;66.11
30516;BME280;17297;54.022;10.760;2022-10-17T03:06:57;101984.91;;;15.62;66.31
30516;BME280;17297;54.022;10.760;2022-10-17T03:09:22;101985.56;;;15.64;66.24
30516;BME280;17297;54.022;10.760;2022-10-17T03:11:49;101982.66;;;15.66;66.24
30516;BME280;17297;54.022;10.760;2022-10-17T03:14:15;101980.63;;;15.68;66.31
30516;BME280;17297;54.022;10.760;2022-10-17T03:16:41;101980.41;;;15.69;66.37
30516;BME280;17297;54.022;10.760;2022-10-17T03:19:06;101980.22;;;15.71;66.48
30516;BME280;17297;54.022;10.760;2022-10-17T03:21:32;101979.84;;;15.74;66.62
30516;BME280;17297;54.022;10.760;2022-10-17T03:23:58;101978.78;;;15.75;66.54
30516;BME280;17297;54.022;10.760;2022-10-17T03:26:23;101976.72;;;15.77;66.61
30516;BME280;17297;54.022;10.760;2022-10-17T03:28:49;101974.63;;;15.79;66.64
30516;BME280;17297;54.022;10.760;2022-10-17T03:31:15;101977.16;;;15.81;66.75
30516;BME280;17297;54.022;10.760;2022-10-17T03:33:42;101974.06;;;15.84;66.69
30516;BME280;17297;54.022;10.760;2022-10-17T03:36:13;101975.53;;;15.86;66.77
30516;BME280;17297;54.022;10.760;2022-10-17T03:38:40;101971.38;;;15.90;66.81
30516;BME280;17297;54.022;10.760;2022-10-17T03:41:06;101967.22;;;15.94;66.75
30516;BME280;17297;54.022;10.760;2022-10-17T03:43:33;101958.91;;;15.96;66.92
30516;BME280;17297;54.022;10.760;2022-10-17T03:45:59;101958.28;;;16.01;66.93
30516;BME280;17297;54.022;10.760;2022-10-17T03:48:26;101949.13;;;16.02;67.15
30516;BME280;17297;54.022;10.760;2022-10-17T03:51:05;101946.19;;;16.03;67.30
30516;BME280;17297;54.022;10.760;2022-10-17T03:53:33;101950.41;;;16.06;67.41
30516;BME280;17297;54.022;10.760;2022-10-17T03:56:10;101947.47;;;16.07;67.62
30516;BME280;17297;54.022;10.760;2022-10-17T03:58:35;101944.34;;;16.10;67.52
30516;BME280;17297;54.022;10.760;2022-10-17T04:01:05;101936.84;;;16.12;67.85
30516;BME280;17297;54.022;10.760;2022-10-17T04:03:31;101932.06;;;16.14;67.55
30516;BME280;17297;54.022;10.760;2022-10-17T04:06:00;101929.97;;;16.16;67.74
30516;BME280;17297;54.022;10.760;2022-10-17T04:08:28;101924.16;;;16.20;67.69
30516;BME280;17297;54.022;10.760;2022-10-17T04:11:07;101929.16;;;16.23;67.66
30516;BME280;17297;54.022;10.760;2022-10-17T04:13:34;101937.97;;;16.25;67.87
30516;BME280;17297;54.022;10.760;2022-10-17T04:16:01;101939.63;;;16.26;67.82
30516;BME280;17297;54.022;10.760;2022-10-17T04:18:27;101943.00;;;16.28;67.68
30516;BME280;17297;54.022;10.760;2022-10-17T04:20:53;101934.66;;;16.29;67.58
30516;BME280;17297;54.022;10.760;2022-10-17T04:23:19;101936.31;;;16.30;67.57
30516;BME280;17297;54.022;10.760;2022-10-17T04:25:44;101938.81;;;16.32;67.27
30516;BME280;17297;54.022;10.760;2022-10-17T04:28:10;101933.19;;;16.33;67.38
30516;BME280;17297;54.022;10.760;2022-10-17T04:30:37;101934.03;;;16.34;67.31
30516;BME280;17297;54.022;10.760;2022-10-17T04:33:03;101930.91;;;16.37;67.29
30516;BME280;17297;54.022;10.760;2022-10-17T04:35:29;101920.88;;;16.37;67.34
30516;BME280;17297;54.022;10.760;2022-10-17T04:38:00;101919.00;;;16.38;67.40
30516;BME280;17297;54.022;10.760;2022-10-17T04:40:25;101908.97;;;16.38;67.31
30516;BME280;17297;54.022;10.760;2022-10-17T04:42:52;101898.97;;;16.39;67.34
30516;BME280;17297;54.022;10.760;2022-10-17T04:45:20;101889.97;;;16.38;67.22
30516;BME280;17297;54.022;10.760;2022-10-17T04:47:48;101891.00;;;16.37;67.32
30516;BME280;17297;54.022;10.760;2022-10-17T04:50:13;101884.75;;;16.37;67.27
30516;BME280;17297;54.022;10.760;2022-10-17T04:52:39;101884.75;;;16.37;67.20
30516;BME280;17297;54.022;10.760;2022-10-17T04:55:06;101892.06;;;16.36;66.99
30516;BME280;17297;54.022;10.760;2022-10-17T04:57:35;101892.47;;;16.33;67.23
30516;BME280;17297;54.022;10.760;2022-10-17T05:00:14;101880.78;;;16.33;67.04
30516;BME280;17297;54.022;10.760;2022-10-17T05:03:15;101888.28;;;16.31;66.74
30516;BME280;17297;54.022;10.760;2022-10-17T05:05:44;101896.66;;;16.29;66.63
30516;BME280;17297;54.022;10.760;2022-10-17T05:08:11;101894.94;;;16.28;66.81
30516;BME280;17297;54.022;10.760;2022-10-17T05:10:41;101896.84;;;16.28;66.85
30516;BME280;17297;54.022;10.760;2022-10-17T05:13:08;101897.88;;;16.27;66.86
30516;BME280;17297;54.022;10.760;2022-10-17T05:15:34;101895.34;;;16.25;66.53
30516;BME280;17297;54.022;10.760;2022-10-17T05:18:01;101896.41;;;16.24;66.79
30516;BME280;17297;54.022;10.760;2022-10-17T05:20:28;101892.84;;;16.24;66.67
30516;BME280;17297;54.022;10.760;2022-10-17T05:22:53;101893.88;;;16.23;66.76
30516;BME280;17297;54.022;10.760;2022-10-17T05:25:19;101891.16;;;16.23;66.83
30516;BME280;17297;54.022;10.760;2022-10-17T05:27:45;101881.16;;;16.23;66.70
30516;BME280;17297;54.022;10.760;2022-10-17T05:30:11;101884.06;;;16.22;66.61
30516;BME280;17297;54.022;10.760;2022-10-17T05:32:37;101885.72;;;16.23;66.78
30516;BME280;17297;54.022;10.760;2022-10-17T05:35:03;101885.72;;;16.23;66.68
30516;BME280;17297;54.022;10.760;2022-10-17T05:37:30;101890.16;;;16.24;66.86
30516;BME280;17297;54.022;10.760;2022-10-17T05:39:56;101879.28;;;16.24;66.67
30516;BME280;17297;54.022;10.760;2022-10-17T05:42:24;101876.56;;;16.24;66.72
30516;BME280;17297;54.022;10.760;2022-10-17T05:44:49;101877.41;;;16.24;66.68
30516;BME280;17297;54.022;10.760;2022-10-17T05:47:17;101873.63;;;16.25;66.84
30516;BME280;17297;54.022;10.760;2022-10-17T05:49:43;101870.50;;;16.22;66.55
30516;BME280;17297;54.022;10.760;2022-10-17T05:52:09;101875.75;;;16.23;66.58
30516;BME280;17297;54.022;10.760;2022-10-17T05:54:44;101868.59;;;16.22;66.61
30516;BME280;17297;54.022;10.760;2022-10-17T05:57:10;101867.78;;;16.22;66.68
30516;BME280;17297;54.022;10.760;2022-10-17T05:59:36;101865.06;;;16.22;66.65
30516;BME280;17297;54.022;10.760;2022-10-17T06:02:11;101869.44;;;16.23;66.78
30516;BME280;17297;54.022;10.760;2022-10-17T06:04:36;101868.59;;;16.22;66.57
30516;BME280;17297;54.022;10.760;2022-10-17T06:07:02;101860.47;;;16.22;66.60
30516;BME280;17297;54.022;10.760;2022-10-17T06:09:30;101860.69;;;16.21;66.42
30516;BME280;17297;54.022;10.760;2022-10-17T06:11:55;101863.41;;;16.21;66.37
30516;BME280;17297;54.022;10.760;2022-10-17T06:14:20;101867.13;;;16.20;66.53
30516;BME280;17297;54.022;10.760;2022-10-17T06:16:49;101867.13;;;16.20;66.58
30516;BME280;17297;54.022;10.760;2022-10-17T06:19:15;101863.59;;;16.19;66.66
30516;BME280;17297;54.022;10.760;2022-10-17T06:21:40;101866.13;;;16.21;66.58
30516;BME280;17297;54.022;10.760;2022-10-17T06:24:10;101857.56;;;16.24;66.69
30516;BME280;17297;54.022;10.760;2022-10-17T06:26:39;101859.88;;;16.33;66.93
30516;BME280;17297;54.022;10.760;2022-10-17T06:29:06;101865.38;;;16.53;66.90
30516;BME280;17297;54.022;10.760;2022-10-17T06:31:35;101857.31;;;16.80;66.61
30516;BME280;17297;54.022;10.760;2022-10-17T06:34:00;101859.19;;;17.06;66.44
30516;BME280;17297;54.022;10.760;2022-10-17T06:36:27;101864.00;;;17.24;66.17
30516;BME280;17297;54.022;10.760;2022-10-17T06:38:53;101859.59;;;17.36;65.71
30516;BME280;17297;54.022;10.760;2022-10-17T06:41:25;101866.06;;;17.48;65.41
30516;BME280;17297;54.022;10.760;2022-10-17T06:43:52;101864.38;;;17.61;65.15
30516;BME280;17297;54.022;10.760;2022-10-17T06:46:24;101867.06;;;17.74;64.84
30516;BME280;17297;54.022;10.760;2022-10-17T06:48:57;101856.81;;;17.83;64.66
30516;BME280;17297;54.022;10.760;2022-10-17T06:51:36;101858.28;;;17.85;64.60
30516;BME280;17297;54.022;10.760;2022-10-17T06:54:05;101861.00;;;17.85;64.43
30516;BME280;17297;54.022;10.760;2022-10-17T06:57:03;101864.31;;;17.87;64.56
30516;BME280;17297;54.022;10.760;2022-10-17T06:59:46;101868.75;;;17.88;64.35
30516;BME280;17297;54.022;10.760;2022-10-17T07:02:18;101869.56;;;17.89;64.29
30516;BME280;17297;54.022;10.760;2022-10-17T07:04:45;101867.03;;;17.87;64.53
30516;BME280;17297;54.022;10.760;2022-10-17T07:07:11;101864.56;;;17.86;64.19
30516;BME280;17297;54.022;10.760;2022-10-17T07:09:36;101867.47;;;17.84;64.23
30516;BME280;17297;54.022;10.760;2022-10-17T07:12:02;101861.19;;;17.84;64.39
30516;BME280;17297;54.022;10.760;2022-10-17T07:14:31;101861.19;;;17.84;64.36
30516;BME280;17297;54.022;10.760;2022-10-17T07:16:57;101856.81;;;17.83;64.57
30516;BME280;17297;54.022;10.760;2022-10-17T07:19:24;101854.53;;;17.80;64.36
30516;BME280;17297;54.022;10.760;2022-10-17T07:21:51;101851.16;;;17.77;64.62
30516;BME280;17297;54.022;10.760;2022-10-17T07:24:17;101843.19;;;17.76;64.51
30516;BME280;17297;54.022;10.760;2022-10-17T07:26:46;101846.94;;;17.75;64.71
30516;BME280;17297;54.022;10.760;2022-10-17T07:29:12;101846.94;;;17.75;64.69
30516;BME280;17297;54.022;10.760;2022-10-17T07:31:56;101849.09;;;17.80;64.56
30516;BME280;17297;54.022;10.760;2022-10-17T07:34:21;101856.81;;;17.83;64.54
30516;BME280;17297;54.022;10.760;2022-10-17T07:36:52;101856.59;;;17.84;64.90
30516;BME280;17297;54.022;10.760;2022-10-17T07:39:18;101843.81;;;17.85;64.74
30516;BME280;17297;54.022;10.760;2022-10-17T07:41:44;101855.34;;;17.87;64.77
30516;BME280;17297;54.022;10.760;2022-10-17T07:44:09;101860.34;;;17.90;64.99
30516;BME280;17297;54.022;10.760;2022-10-17T07:46:41;101869.16;;;17.92;65.00
30516;BME280;17297;54.022;10.760;2022-10-17T07:49:06;101877.91;;;17.94;65.14
30516;BME280;17297;54.022;10.760;2022-10-17T07:51:32;101876.22;;;17.99;65.23
30516;BME280;17297;54.022;10.760;2022-10-17T07:53:58;101870.56;;;18.01;65.08
30516;BME280;17297;54.022;10.760;2022-10-17T07:56:23;101873.69;;;18.05;65.09
30516;BME280;17297;54.022;10.760;2022-10-17T07:58:49;101868.03;;;18.06;65.35
30516;BME280;17297;54.022;10.760;2022-10-17T08:01:15;101865.09;;;18.08;65.22
30516;BME280;17297;54.022;10.760;2022-10-17T08:03:43;101857.53;;;18.10;65.43
30516;BME280;17297;54.022;10.760;2022-10-17T08:06:09;101854.38;;;18.13;65.33
30516;BME280;17297;54.022;10.760;2022-10-17T08:08:34;101865.06;;;18.14;65.21
30516;BME280;17297;54.022;10.760;2022-10-17T08:11:05;101867.56;;;18.16;65.19
30516;BME280;17297;54.022;10.760;2022-10-17T08:13:31;101863.56;;;18.18;65.39
30516;BME280;17297;54.022;10.760;2022-10-17T08:16:04;101845.97;;;18.21;65.59
30516;BME280;17297;54.022;10.760;2022-10-17T08:18:32;101840.31;;;18.22;65.23
30516;BME280;17297;54.022;10.760;2022-10-17T08:21:04;101838.19;;;18.24;65.35
30516;BME280;17297;54.022;10.760;2022-10-17T08:23:33;101852.22;;;18.28;65.34
30516;BME280;17297;54.022;10.760;2022-10-17T08:26:03;101858.09;;;18.32;65.50
30516;BME280;17297;54.022;10.760;2022-10-17T08:28:29;101856.78;;;18.34;65.57
30516;BME280;17297;54.022;10.760;2022-10-17T08:31:02;101865.59;;;18.36;65.83
30516;BME280;17297;54.022;10.760;2022-10-17T08:33:28;101849.63;;;18.40;65.69
30516;BME280;17297;54.022;10.760;2022-10-17T08:35:53;101841.03;;;18.43;65.64
30516;BME280;17297;54.022;10.760;2022-10-17T08:38:18;101838.94;;;18.45;65.84
30516;BME280;17297;54.022;10.760;2022-10-17T08:40:47;101836.81;;;18.47;65.89
30516;BME280;17297;54.022;10.760;2022-10-17T08:43:31;101842.25;;;18.47;65.98
30516;BME280;17297;54.022;10.760;2022-10-17T08:46:02;101833.66;;;18.50;66.07
30516;BME280;17297;54.022;10.760;2022-10-17T08:48:33;101827.16;;;18.51;66.01
30516;BME280;17297;54.022;10.760;2022-10-17T08:51:14;101831.56;;;18.52;65.90
30516;BME280;17297;54.022;10.760;2022-10-17T08:54:02;101836.78;;;18.54;66.01
30516;BME280;17297;54.022;10.760;2022-10-17T08:56:34;101834.91;;;18.54;66.22
30516;BME280;17297;54.022;10.760;2022-10-17T08:59:05;101835.50;;;18.56;66.12
30516;BME280;17297;54.022;10.760;2022-10-17T09:01:56;101821.03;;;18.56;65.99
30516;BME280;17297;54.022;10.760;2022-10-17T09:07:21;101824.16;;;18.59;66.46
30516;BME280;17297;54.022;10.760;2022-10-17T09:12:40;101818.88;;;18.64;66.49
30516;BME280;17297;54.022;10.760;2022-10-17T09:17:53;101820.31;;;18.74;66.63
30516;BME280;17297;54.022;10.760;2022-10-17T09:20:23;101819.66;;;18.78;66.87
30516;BME280;17297;54.022;10.760;2022-10-17T09:22:58;101807.25;;;18.82;66.64
30516;BME280;17297;54.022;10.760;2022-10-17T09:25:25;101792.75;;;18.88;66.76
30516;BME280;17297;54.022;10.760;2022-10-17T09:30:42;101799.59;;;18.98;66.75
30516;BME280;17297;54.022;10.760;2022-10-17T09:33:10;101799.97;;;19.01;66.81
30516;BME280;17297;54.022;10.760;2022-10-17T09:35:37;101804.72;;;19.06;66.96
30516;BME280;17297;54.022;10.760;2022-10-17T09:38:03;101804.09;;;19.10;66.91
30516;BME280;17297;54.022;10.760;2022-10-17T09:40:34;101807.19;;;19.14;66.85
30516;BME280;17297;54.022;10.760;2022-10-17T09:43:01;101818.28;;;19.19;66.78
30516;BME280;17297;54.022;10.760;2022-10-17T09:45:31;101807.50;;;19.24;66.79
30516;BME280;17297;54.022;10.760;2022-10-17T09:48:10;101807.06;;;19.27;66.71
30516;BME280;17297;54.022;10.760;2022-10-17T09:50:40;101810.16;;;19.31;66.90
30516;BME280;17297;54.022;10.760;2022-10-17T09:53:22;101818.13;;;19.32;66.63
30516;BME280;17297;54.022;10.760;2022-10-17T09:55:55;101819.34;;;19.36;66.62
30516;BME280;17297;54.022;10.760;2022-10-17T09:58:22;101818.06;;;19.39;66.94
30516;BME280;17297;54.022;10.760;2022-10-17T10:00:47;101814.06;;;19.42;66.99
30516;BME280;17297;54.022;10.760;2022-10-17T10:03:24;101812.78;;;19.44;66.83
30516;BME280;17297;54.022;10.760;2022-10-17T10:06:02;101824.91;;;19.48;66.87
30516;BME280;17297;54.022;10.760;2022-10-17T10:08:34;101827.16;;;19.51;66.81
30516;BME280;17297;54.022;10.760;2022-10-17T10:11:02;101836.56;;;19.55;66.84
30516;BME280;17297;54.022;10.760;2022-10-17T10:13:30;101828.53;;;19.60;66.98
30516;BME280;17297;54.022;10.760;2022-10-17T10:18:40;101822.59;;;19.70;66.91
30516;BME280;17297;54.022;10.760;2022-10-17T10:23:31;101806.13;;;19.77;66.84
30516;BME280;17297;54.022;10.760;2022-10-17T10:26:00;101817.41;;;19.80;66.71
30516;BME280;17297;54.022;10.760;2022-10-17T10:28:34;101823.50;;;19.82;66.84
30516;BME280;17297;54.022;10.760;2022-10-17T10:31:06;101824.69;;;19.87;66.88
30516;BME280;17297;54.022;10.760;2022-10-17T10:33:34;101822.56;;;19.89;66.69
30516;BME280;17297;54.022;10.760;2022-10-17T10:36:03;101827.78;;;19.90;66.91
30516;BME280;17297;54.022;10.760;2022-10-17T10:38:31;101829.03;;;19.94;67.05
30516;BME280;17297;54.022;10.760;2022-10-17T10:41:07;101824.97;;;19.97;66.99
30516;BME280;17297;54.022;10.760;2022-10-17T10:43:34;101822.66;;;20.00;67.06
30516;BME280;17297;54.022;10.760;2022-10-17T10:46:04;101824.91;;;20.03;66.67
30516;BME280;17297;54.022;10.760;2022-10-17T10:48:34;101826.13;;;20.07;66.85
30516;BME280;17297;54.022;10.760;2022-10-17T10:51:04;101826.47;;;20.11;66.93
30516;BME280;17297;54.022;10.760;2022-10-17T10:53:38;101827.69;;;20.15;67.07
30516;BME280;17297;54.022;10.760;2022-10-17T10:57:10;101821.28;;;20.21;66.92
30516;BME280;17297;54.022;10.760;2022-10-17T10:59:34;101815.97;;;20.26;66.80
30516;BME280;17297;54.022;10.760;2022-10-17T11:02:10;101820.72;;;20.31;67.22
30516;BME280;17297;54.022;10.760;2022-10-17T11:04:46;101814.81;;;20.34;66.82
30516;BME280;17297;54.022;10.760;2022-10-17T11:07:19;101811.84;;;20.36;67.03
30516;BME280;17297;54.022;10.760;2022-10-17T11:10:07;101804.28;;;20.38;66.82
30516;BME280;17297;54.022;10.760;2022-10-17T11:12:42;101808.41;;;20.40;66.92
30516;BME280;17297;54.022;10.760;2022-10-17T11:15:27;101811.53;;;20.44;66.71
30516;BME280;17297;54.022;10.760;2022-10-17T11:18:03;101800.34;;;20.45;66.61
30516;BME280;17297;54.022;10.760;2022-10-17T11:20:52;101802.63;;;20.48;66.91
30516;BME280;17297;54.022;10.760;2022-10-17T11:23:27;101796.09;;;20.49;66.88
30516;BME280;17297;54.022;10.760;2022-10-17T11:25:57;101800.28;;;20.52;66.76
30516;BME280;17297;54.022;10.760;2022-10-17T11:28:23;101799.25;;;20.53;66.87
30516;BME280;17297;54.022;10.760;2022-10-17T11:30:59;101803.38;;;20.56;67.08
30516;BME280;17297;54.022;10.760;2022-10-17T11:33:31;101799.59;;;20.57;66.94
30516;BME280;17297;54.022;10.760;2022-10-17T11:36:03;101802.09;;;20.58;66.72
30516;BME280;17297;54.022;10.760;2022-10-17T11:38:55;101807.34;;;20.60;66.86
30516;BME280;17297;54.022;10.760;2022-10-17T11:41:39;101804.81;;;20.58;66.99
30516;BME280;17297;54.022;10.760;2022-10-17T11:46:45;101804.81;;;20.58;67.05
30516;BME280;17297;54.022;10.760;2022-10-17T11:49:15;101810.53;;;20.57;67.19
30516;BME280;17297;54.022;10.760;2022-10-17T11:51:47;101810.53;;;20.57;67.18
30516;BME280;17297;54.022;10.760;2022-10-17T11:54:26;101801.50;;;20.56;67.24
30516;BME280;17297;54.022;10.760;2022-10-17T11:57:20;101803.38;;;20.56;67.28
30516;BME280;17297;54.022;10.760;2022-10-17T12:00:04;101806.97;;;20.56;67.58
30516;BME280;17297;54.022;10.760;2022-10-17T12:05:19;101804.81;;;20.58;67.75
30516;BME280;17297;54.022;10.760;2022-10-17T12:08:04;101800.19;;;20.59;67.39
30516;BME280;17297;54.022;10.760;2022-10-17T12:15:54;101798.19;;;20.66;67.95
30516;BME280;17297;54.022;10.760;2022-10-17T12:18:23;101787.84;;;20.68;67.95
30516;BME280;17297;54.022;10.760;2022-10-17T12:20:55;101781.91;;;20.71;67.89
30516;BME280;17297;54.022;10.760;2022-10-17T12:23:25;101791.31;;;20.75;67.79
30516;BME280;17297;54.022;10.760;2022-10-17T12:25:59;101787.25;;;20.77;67.93
30516;BME280;17297;54.022;10.760;2022-10-17T12:28:43;101777.75;;;20.80;67.73
30516;BME280;17297;54.022;10.760;2022-10-17T12:31:20;101780.25;;;20.82;67.78
30516;BME280;17297;54.022;10.760;2022-10-17T12:34:00;101779.19;;;20.83;67.87
30516;BME280;17297;54.022;10.760;2022-10-17T12:46:50;101793.94;;;20.82;67.82
30516;BME280;17297;54.022;10.760;2022-10-17T12:55:06;101907.44;;;20.72;67.95
30516;BME280;17297;54.022;10.760;2022-10-17T12:57:49;101858.34;;;20.66;68.05
30516;BME280;17297;54.022;10.760;2022-10-17T13:00:17;101827.03;;;20.62;68.17
30516;BME280;17297;54.022;10.760;2022-10-17T13:02:44;101836.19;;;20.56;68.71
30516;BME280;17297;54.022;10.760;2022-10-17T13:05:15;101828.88;;;20.49;68.91
30516;BME280;17297;54.022;10.760;2022-10-17T13:07:44;101831.50;;;20.44;68.89
30516;BME280;17297;54.022;10.760;2022-10-17T13:10:24;101855.13;;;20.39;69.09
30516;BME280;17297;54.022;10.760;2022-10-17T13:12:53;101866.72;;;20.34;69.07
30516;BME280;17297;54.022;10.760;2022-10-17T13:15:23;101834.88;;;20.28;69.27
30516;BME280;17297;54.022;10.760;2022-10-17T13:17:59;101836.41;;;20.24;69.38
30516;BME280;17297;54.022;10.760;2022-10-17T13:20:27;101849.94;;;20.19;69.78
30516;BME280;17297;54.022;10.760;2022-10-17T13:22:54;101844.94;;;20.16;69.78
30516;BME280;17297;54.022;10.760;2022-10-17T13:25:21;101839.94;;;20.13;70.04
30516;BME280;17297;54.022;10.760;2022-10-17T13:27:48;101849.41;;;20.10;69.98
30516;BME280;17297;54.022;10.760;2022-10-17T13:30:29;101845.22;;;20.07;70.25
30516;BME280;17297;54.022;10.760;2022-10-17T13:32:55;101841.66;;;20.07;70.20
30516;BME280;17297;54.022;10.760;2022-10-17T13:35:27;101846.53;;;20.05;70.29
30516;BME280;17297;54.022;10.760;2022-10-17T13:37:53;101844.84;;;20.04;70.55
30516;BME280;17297;54.022;10.760;2022-10-17T13:40:23;101863.16;;;20.03;71.00
30516;BME280;17297;54.022;10.760;2022-10-17T13:42:51;101857.06;;;20.01;70.64
30516;BME280;17297;54.022;10.760;2022-10-17T13:45:33;101876.41;;;20.00;71.07
30516;BME280;17297;54.022;10.760;2022-10-17T13:48:05;101887.78;;;19.97;70.76
30516;BME280;17297;54.022;10.760;2022-10-17T13:50:37;101897.03;;;19.96;71.29
30516;BME280;17297;54.022;10.760;2022-10-17T13:55:58;101908.88;;;19.90;71.06
30516;BME280;17297;54.022;10.760;2022-10-17T13:58:24;101900.94;;;19.88;71.32
30516;BME280;17297;54.022;10.760;2022-10-17T14:00:51;101892.13;;;19.86;71.30
30516;BME280;17297;54.022;10.760;2022-10-17T14:03:19;101907.66;;;19.86;71.56